KNEW/NEW METAR and TAF weather

Enter ICAO airport designator
Station Type Date Time Source
KNEW METAR 2019/07/20 19:53 UTC NOAA

KNEW 201953Z 15009KT 9SM -RA FEW037 BKN110 24/22 A3004 RMK AO2 LTG DSNT N-SE SLP165 P0004 T02390222


Station Type Date Time Source
KNEW Decoded METAR 2019/07/20 19:53 UTC NOAA

NEW ORLEANS LAKEFRONT AIRPORT , LA, United States (KNEW) 30-03N 90-02W 3M
Jul 20, 2019 - 03:53 PM EDT / 2019.07.20 1953 UTC
Wind: from the SSE (150 degrees) at 10 MPH (9 KT):0
Visibility: 9 mile(s):0
Sky conditions: mostly cloudy
Weather: light rain; Lightning observed
Precipitation last hour: 0.04 inches
Temperature: 75.0 F (23.9 C)
Dew Point: 72.0 F (22.2 C)
Relative Humidity: 90%
Pressure (altimeter): 30.04 in. Hg (1017 hPa)
ob: KNEW 201953Z 15009KT 9SM -RA FEW037 BKN110 24/22 A3004 RMK AO2 LTG DSNT N-SE SLP165 P0004 T02390222
cycle: 20

Station Type Date Time Source
KNEW TAF 2019/07/20 20:51 UTC NOAA

TAF
AMD KNEW 201949Z 2020/2118 13008KT P6SM SHRA VCTS SCT030CB BKN090
FM210000 VRB04KT P6SM SCT025 BKN110
FM211400 VRB03KT P6SM VCSH SCT025 BKN080

Example: see airport list